sensor_id;sensor_type;location;lat;lon;timestamp;P1;durP1;ratioP1;P2;durP2;ratioP2
1460;SDS011;724;49.910;12.530;2023-07-13T00:00:08;8.57;;;8.07;;
1460;SDS011;724;49.910;12.530;2023-07-13T00:02:35;8.60;;;8.10;;
1460;SDS011;724;49.910;12.530;2023-07-13T00:05:02;8.37;;;7.93;;
1460;SDS011;724;49.910;12.530;2023-07-13T00:07:31;7.80;;;7.40;;
1460;SDS011;724;49.910;12.530;2023-07-13T00:09:58;7.73;;;7.33;;
1460;SDS011;724;49.910;12.530;2023-07-13T00:12:26;7.20;;;6.80;;
1460;SDS011;724;49.910;12.530;2023-07-13T00:14:55;7.40;;;7.00;;
1460;SDS011;724;49.910;12.530;2023-07-13T00:17:23;7.50;;;7.10;;
1460;SDS011;724;49.910;12.530;2023-07-13T00:19:50;8.10;;;7.70;;
1460;SDS011;724;49.910;12.530;2023-07-13T00:22:16;8.20;;;7.80;;
1460;SDS011;724;49.910;12.530;2023-07-13T00:24:45;7.80;;;7.40;;
1460;SDS011;724;49.910;12.530;2023-07-13T00:27:12;7.17;;;6.77;;
1460;SDS011;724;49.910;12.530;2023-07-13T00:29:39;6.80;;;6.40;;
1460;SDS011;724;49.910;12.530;2023-07-13T00:32:06;7.07;;;6.67;;
1460;SDS011;724;49.910;12.530;2023-07-13T00:34:36;6.83;;;6.43;;
1460;SDS011;724;49.910;12.530;2023-07-13T00:37:03;7.13;;;6.73;;
1460;SDS011;724;49.910;12.530;2023-07-13T00:39:31;7.00;;;6.60;;
1460;SDS011;724;49.910;12.530;2023-07-13T00:41:59;6.90;;;6.50;;
1460;SDS011;724;49.910;12.530;2023-07-13T00:44:27;7.13;;;6.73;;
1460;SDS011;724;49.910;12.530;2023-07-13T00:46:54;7.80;;;7.40;;
1460;SDS011;724;49.910;12.530;2023-07-13T00:49:23;7.90;;;7.50;;
1460;SDS011;724;49.910;12.530;2023-07-13T00:51:53;7.90;;;7.50;;
1460;SDS011;724;49.910;12.530;2023-07-13T00:54:22;7.73;;;7.33;;
1460;SDS011;724;49.910;12.530;2023-07-13T00:56:55;7.80;;;7.40;;
1460;SDS011;724;49.910;12.530;2023-07-13T00:59:25;7.00;;;6.60;;
1460;SDS011;724;49.910;12.530;2023-07-13T01:01:52;7.13;;;6.73;;
1460;SDS011;724;49.910;12.530;2023-07-13T01:04:20;7.10;;;6.70;;
1460;SDS011;724;49.910;12.530;2023-07-13T01:06:47;7.43;;;7.03;;
1460;SDS011;724;49.910;12.530;2023-07-13T01:09:14;7.43;;;7.03;;
1460;SDS011;724;49.910;12.530;2023-07-13T01:11:41;7.90;;;7.50;;
1460;SDS011;724;49.910;12.530;2023-07-13T01:14:09;7.70;;;7.30;;
1460;SDS011;724;49.910;12.530;2023-07-13T01:16:38;7.43;;;7.03;;
1460;SDS011;724;49.910;12.530;2023-07-13T01:19:09;8.20;;;7.80;;
1460;SDS011;724;49.910;12.530;2023-07-13T01:21:44;8.10;;;7.70;;
1460;SDS011;724;49.910;12.530;2023-07-13T01:24:17;8.20;;;7.80;;
1460;SDS011;724;49.910;12.530;2023-07-13T01:26:43;8.20;;;7.80;;
1460;SDS011;724;49.910;12.530;2023-07-13T01:29:10;8.17;;;7.77;;
1460;SDS011;724;49.910;12.530;2023-07-13T01:31:37;8.20;;;7.80;;
1460;SDS011;724;49.910;12.530;2023-07-13T01:34:03;8.60;;;8.10;;
1460;SDS011;724;49.910;12.530;2023-07-13T01:36:31;8.60;;;8.10;;
1460;SDS011;724;49.910;12.530;2023-07-13T01:38:59;8.70;;;8.20;;
1460;SDS011;724;49.910;12.530;2023-07-13T01:41:27;8.80;;;8.30;;
1460;SDS011;724;49.910;12.530;2023-07-13T01:43:54;9.00;;;8.50;;
1460;SDS011;724;49.910;12.530;2023-07-13T01:46:20;9.00;;;8.50;;
1460;SDS011;724;49.910;12.530;2023-07-13T01:48:47;9.00;;;8.50;;
1460;SDS011;724;49.910;12.530;2023-07-13T01:51:15;9.47;;;8.97;;
1460;SDS011;724;49.910;12.530;2023-07-13T01:53:42;9.57;;;9.07;;
1460;SDS011;724;49.910;12.530;2023-07-13T01:56:10;9.47;;;8.97;;
1460;SDS011;724;49.910;12.530;2023-07-13T01:58:37;9.50;;;9.00;;
1460;SDS011;724;49.910;12.530;2023-07-13T02:01:04;9.80;;;9.30;;
1460;SDS011;724;49.910;12.530;2023-07-13T02:03:30;9.50;;;9.00;;
1460;SDS011;724;49.910;12.530;2023-07-13T02:05:57;9.77;;;9.27;;
1460;SDS011;724;49.910;12.530;2023-07-13T02:08:24;9.70;;;9.20;;
1460;SDS011;724;49.910;12.530;2023-07-13T02:10:50;9.90;;;9.40;;
1460;SDS011;724;49.910;12.530;2023-07-13T02:13:18;9.80;;;9.30;;
1460;SDS011;724;49.910;12.530;2023-07-13T02:15:45;9.90;;;9.40;;
1460;SDS011;724;49.910;12.530;2023-07-13T02:18:12;9.50;;;9.00;;
1460;SDS011;724;49.910;12.530;2023-07-13T02:20:42;9.60;;;9.10;;
1460;SDS011;724;49.910;12.530;2023-07-13T02:23:09;9.70;;;9.20;;
1460;SDS011;724;49.910;12.530;2023-07-13T02:25:36;9.40;;;8.90;;
1460;SDS011;724;49.910;12.530;2023-07-13T02:28:03;9.50;;;9.00;;
1460;SDS011;724;49.910;12.530;2023-07-13T02:30:31;9.30;;;8.80;;
1460;SDS011;724;49.910;12.530;2023-07-13T02:32:58;9.90;;;9.40;;
1460;SDS011;724;49.910;12.530;2023-07-13T02:35:24;8.90;;;8.40;;
1460;SDS011;724;49.910;12.530;2023-07-13T02:37:51;9.23;;;8.73;;
1460;SDS011;724;49.910;12.530;2023-07-13T02:40:18;8.83;;;8.33;;
1460;SDS011;724;49.910;12.530;2023-07-13T02:42:45;9.63;;;9.13;;
1460;SDS011;724;49.910;12.530;2023-07-13T02:45:12;9.60;;;9.10;;
1460;SDS011;724;49.910;12.530;2023-07-13T02:47:41;9.50;;;9.00;;
1460;SDS011;724;49.910;12.530;2023-07-13T02:50:08;9.43;;;8.93;;
1460;SDS011;724;49.910;12.530;2023-07-13T02:52:35;9.50;;;9.00;;
1460;SDS011;724;49.910;12.530;2023-07-13T02:55:02;9.63;;;9.13;;
1460;SDS011;724;49.910;12.530;2023-07-13T02:57:29;9.50;;;9.00;;
1460;SDS011;724;49.910;12.530;2023-07-13T02:59:58;9.00;;;8.50;;
1460;SDS011;724;49.910;12.530;2023-07-13T03:02:25;9.80;;;9.30;;
1460;SDS011;724;49.910;12.530;2023-07-13T03:04:54;9.60;;;9.10;;
1460;SDS011;724;49.910;12.530;2023-07-13T03:07:21;9.80;;;9.30;;
1460;SDS011;724;49.910;12.530;2023-07-13T03:09:48;9.40;;;8.90;;
1460;SDS011;724;49.910;12.530;2023-07-13T03:12:15;9.90;;;9.40;;
1460;SDS011;724;49.910;12.530;2023-07-13T03:14:41;9.40;;;8.90;;
1460;SDS011;724;49.910;12.530;2023-07-13T03:17:08;9.83;;;9.33;;
1460;SDS011;724;49.910;12.530;2023-07-13T03:19:35;8.90;;;8.40;;
1460;SDS011;724;49.910;12.530;2023-07-13T03:22:03;8.80;;;8.30;;
1460;SDS011;724;49.910;12.530;2023-07-13T03:24:31;8.90;;;8.40;;
1460;SDS011;724;49.910;12.530;2023-07-13T03:26:58;8.00;;;7.60;;
1460;SDS011;724;49.910;12.530;2023-07-13T03:29:26;8.60;;;8.10;;
1460;SDS011;724;49.910;12.530;2023-07-13T03:31:53;8.90;;;8.40;;
1460;SDS011;724;49.910;12.530;2023-07-13T03:34:20;8.80;;;8.30;;
1460;SDS011;724;49.910;12.530;2023-07-13T03:36:47;8.87;;;8.37;;
1460;SDS011;724;49.910;12.530;2023-07-13T03:39:15;7.90;;;7.50;;
1460;SDS011;724;49.910;12.530;2023-07-13T03:41:42;8.10;;;7.70;;
1460;SDS011;724;49.910;12.530;2023-07-13T03:44:08;8.30;;;7.90;;
1460;SDS011;724;49.910;12.530;2023-07-13T03:46:35;8.53;;;8.03;;
1460;SDS011;724;49.910;12.530;2023-07-13T03:49:03;8.63;;;8.13;;
1460;SDS011;724;49.910;12.530;2023-07-13T03:51:30;8.20;;;7.80;;
1460;SDS011;724;49.910;12.530;2023-07-13T03:53:57;8.30;;;7.90;;
1460;SDS011;724;49.910;12.530;2023-07-13T03:56:25;8.70;;;8.20;;
1460;SDS011;724;49.910;12.530;2023-07-13T03:58:52;8.63;;;8.13;;
1460;SDS011;724;49.910;12.530;2023-07-13T04:01:20;8.20;;;7.80;;
1460;SDS011;724;49.910;12.530;2023-07-13T04:03:48;8.30;;;7.90;;
1460;SDS011;724;49.910;12.530;2023-07-13T04:06:16;8.50;;;8.00;;
1460;SDS011;724;49.910;12.530;2023-07-13T04:08:47;8.73;;;8.23;;
1460;SDS011;724;49.910;12.530;2023-07-13T04:11:15;9.20;;;8.70;;
1460;SDS011;724;49.910;12.530;2023-07-13T04:13:44;9.10;;;8.60;;
1460;SDS011;724;49.910;12.530;2023-07-13T04:16:11;8.70;;;8.20;;
1460;SDS011;724;49.910;12.530;2023-07-13T04:18:38;8.60;;;8.10;;
1460;SDS011;724;49.910;12.530;2023-07-13T04:21:06;8.77;;;8.27;;
1460;SDS011;724;49.910;12.530;2023-07-13T04:23:33;8.80;;;8.30;;
1460;SDS011;724;49.910;12.530;2023-07-13T04:26:00;9.00;;;8.50;;
1460;SDS011;724;49.910;12.530;2023-07-13T04:28:26;9.10;;;8.60;;
1460;SDS011;724;49.910;12.530;2023-07-13T04:30:54;8.90;;;8.40;;
1460;SDS011;724;49.910;12.530;2023-07-13T04:33:21;8.90;;;8.40;;
1460;SDS011;724;49.910;12.530;2023-07-13T04:35:48;8.80;;;8.30;;
1460;SDS011;724;49.910;12.530;2023-07-13T04:38:21;8.70;;;8.20;;
1460;SDS011;724;49.910;12.530;2023-07-13T04:40:49;9.17;;;8.67;;
1460;SDS011;724;49.910;12.530;2023-07-13T04:43:16;8.70;;;8.20;;
1460;SDS011;724;49.910;12.530;2023-07-13T04:45:43;9.10;;;8.60;;
1460;SDS011;724;49.910;12.530;2023-07-13T04:48:11;9.30;;;8.80;;
1460;SDS011;724;49.910;12.530;2023-07-13T04:50:38;9.00;;;8.50;;
1460;SDS011;724;49.910;12.530;2023-07-13T04:53:05;9.30;;;8.80;;
1460;SDS011;724;49.910;12.530;2023-07-13T04:55:32;8.83;;;8.33;;
1460;SDS011;724;49.910;12.530;2023-07-13T04:57:59;9.10;;;8.60;;
1460;SDS011;724;49.910;12.530;2023-07-13T05:00:26;9.43;;;8.93;;
1460;SDS011;724;49.910;12.530;2023-07-13T05:02:53;9.10;;;8.60;;
1460;SDS011;724;49.910;12.530;2023-07-13T05:05:22;9.30;;;8.80;;
1460;SDS011;724;49.910;12.530;2023-07-13T05:07:49;9.47;;;8.97;;
1460;SDS011;724;49.910;12.530;2023-07-13T05:10:16;9.10;;;8.60;;
1460;SDS011;724;49.910;12.530;2023-07-13T05:12:43;9.13;;;8.63;;
1460;SDS011;724;49.910;12.530;2023-07-13T05:15:10;9.20;;;8.70;;
1460;SDS011;724;49.910;12.530;2023-07-13T05:17:38;9.67;;;9.17;;
1460;SDS011;724;49.910;12.530;2023-07-13T05:20:05;9.47;;;8.97;;
1460;SDS011;724;49.910;12.530;2023-07-13T05:22:34;9.20;;;8.70;;
1460;SDS011;724;49.910;12.530;2023-07-13T05:25:01;9.10;;;8.60;;
1460;SDS011;724;49.910;12.530;2023-07-13T05:27:29;9.60;;;9.10;;
1460;SDS011;724;49.910;12.530;2023-07-13T05:29:58;9.40;;;8.90;;
1460;SDS011;724;49.910;12.530;2023-07-13T05:32:25;9.50;;;9.00;;
1460;SDS011;724;49.910;12.530;2023-07-13T05:34:52;9.40;;;8.90;;
1460;SDS011;724;49.910;12.530;2023-07-13T05:37:18;9.50;;;9.00;;
1460;SDS011;724;49.910;12.530;2023-07-13T05:39:47;9.33;;;8.83;;
1460;SDS011;724;49.910;12.530;2023-07-13T05:42:13;9.50;;;9.00;;
1460;SDS011;724;49.910;12.530;2023-07-13T05:44:40;9.30;;;8.80;;
1460;SDS011;724;49.910;12.530;2023-07-13T05:47:07;9.70;;;9.20;;
1460;SDS011;724;49.910;12.530;2023-07-13T05:49:34;9.50;;;9.00;;
1460;SDS011;724;49.910;12.530;2023-07-13T05:52:01;9.10;;;8.60;;
1460;SDS011;724;49.910;12.530;2023-07-13T05:54:27;9.40;;;8.90;;
1460;SDS011;724;49.910;12.530;2023-07-13T05:56:56;9.67;;;9.17;;
1460;SDS011;724;49.910;12.530;2023-07-13T05:59:23;9.80;;;9.30;;
1460;SDS011;724;49.910;12.530;2023-07-13T06:01:51;9.93;;;9.43;;
1460;SDS011;724;49.910;12.530;2023-07-13T06:04:18;9.80;;;9.30;;
1460;SDS011;724;49.910;12.530;2023-07-13T06:06:45;10.20;;;9.70;;
1460;SDS011;724;49.910;12.530;2023-07-13T06:09:12;10.10;;;9.60;;
1460;SDS011;724;49.910;12.530;2023-07-13T06:11:42;10.20;;;9.70;;
1460;SDS011;724;49.910;12.530;2023-07-13T06:14:10;10.80;;;10.20;;
1460;SDS011;724;49.910;12.530;2023-07-13T06:16:37;10.10;;;9.60;;
1460;SDS011;724;49.910;12.530;2023-07-13T06:19:04;10.20;;;9.70;;
1460;SDS011;724;49.910;12.530;2023-07-13T06:21:31;10.70;;;10.10;;
1460;SDS011;724;49.910;12.530;2023-07-13T06:23:57;11.13;;;10.53;;
1460;SDS011;724;49.910;12.530;2023-07-13T06:26:24;10.80;;;10.20;;
1460;SDS011;724;49.910;12.530;2023-07-13T06:28:51;10.67;;;10.07;;
1460;SDS011;724;49.910;12.530;2023-07-13T06:31:20;10.03;;;9.53;;
1460;SDS011;724;49.910;12.530;2023-07-13T06:33:47;10.07;;;9.57;;
1460;SDS011;724;49.910;12.530;2023-07-13T06:36:14;10.10;;;9.60;;
1460;SDS011;724;49.910;12.530;2023-07-13T06:38:40;10.07;;;9.57;;
1460;SDS011;724;49.910;12.530;2023-07-13T06:41:07;10.60;;;10.00;;
1460;SDS011;724;49.910;12.530;2023-07-13T06:43:34;9.90;;;9.40;;
1460;SDS011;724;49.910;12.530;2023-07-13T06:46:00;10.13;;;9.63;;
1460;SDS011;724;49.910;12.530;2023-07-13T06:48:29;10.33;;;9.83;;
1460;SDS011;724;49.910;12.530;2023-07-13T06:50:56;10.30;;;9.80;;
1460;SDS011;724;49.910;12.530;2023-07-13T06:53:22;10.40;;;9.90;;
1460;SDS011;724;49.910;12.530;2023-07-13T06:55:49;10.30;;;9.80;;
1460;SDS011;724;49.910;12.530;2023-07-13T06:58:17;10.27;;;9.77;;
1460;SDS011;724;49.910;12.530;2023-07-13T07:00:45;10.83;;;10.23;;
1460;SDS011;724;49.910;12.530;2023-07-13T07:03:12;10.90;;;10.30;;
1460;SDS011;724;49.910;12.530;2023-07-13T07:05:41;11.03;;;10.43;;
1460;SDS011;724;49.910;12.530;2023-07-13T07:08:08;10.30;;;9.80;;
1460;SDS011;724;49.910;12.530;2023-07-13T07:10:34;10.73;;;10.13;;
1460;SDS011;724;49.910;12.530;2023-07-13T07:13:02;10.47;;;9.93;;
1460;SDS011;724;49.910;12.530;2023-07-13T07:15:30;10.30;;;9.80;;
1460;SDS011;724;49.910;12.530;2023-07-13T07:17:57;10.03;;;9.53;;
1460;SDS011;724;49.910;12.530;2023-07-13T07:20:24;10.73;;;10.13;;
1460;SDS011;724;49.910;12.530;2023-07-13T07:22:52;10.80;;;10.20;;
1460;SDS011;724;49.910;12.530;2023-07-13T07:25:19;10.53;;;9.97;;
1460;SDS011;724;49.910;12.530;2023-07-13T07:27:46;10.17;;;9.67;;
1460;SDS011;724;49.910;12.530;2023-07-13T07:30:13;10.10;;;9.60;;
1460;SDS011;724;49.910;12.530;2023-07-13T07:32:40;10.20;;;9.70;;
1460;SDS011;724;49.910;12.530;2023-07-13T07:35:07;10.77;;;10.17;;
1460;SDS011;724;49.910;12.530;2023-07-13T07:37:34;10.70;;;10.10;;
1460;SDS011;724;49.910;12.530;2023-07-13T07:40:03;10.27;;;9.77;;
1460;SDS011;724;49.910;12.530;2023-07-13T07:42:30;10.03;;;9.53;;
1460;SDS011;724;49.910;12.530;2023-07-13T07:44:56;10.83;;;10.23;;
1460;SDS011;724;49.910;12.530;2023-07-13T07:47:23;10.60;;;10.00;;
1460;SDS011;724;49.910;12.530;2023-07-13T07:49:50;11.00;;;10.40;;
1460;SDS011;724;49.910;12.530;2023-07-13T07:52:17;10.07;;;9.57;;
1460;SDS011;724;49.910;12.530;2023-07-13T07:54:44;10.17;;;9.67;;
1460;SDS011;724;49.910;12.530;2023-07-13T07:57:12;9.77;;;9.27;;
1460;SDS011;724;49.910;12.530;2023-07-13T07:59:39;9.93;;;9.43;;
1460;SDS011;724;49.910;12.530;2023-07-13T08:02:06;10.67;;;10.07;;
1460;SDS011;724;49.910;12.530;2023-07-13T08:04:34;10.80;;;10.20;;
1460;SDS011;724;49.910;12.530;2023-07-13T08:07:01;11.50;;;10.90;;
1460;SDS011;724;49.910;12.530;2023-07-13T08:09:28;11.00;;;10.40;;
1460;SDS011;724;49.910;12.530;2023-07-13T08:11:55;11.70;;;11.10;;
1460;SDS011;724;49.910;12.530;2023-07-13T08:14:23;11.23;;;10.63;;
1460;SDS011;724;49.910;12.530;2023-07-13T08:16:50;11.47;;;10.87;;
1460;SDS011;724;49.910;12.530;2023-07-13T08:19:18;11.53;;;10.93;;
1460;SDS011;724;49.910;12.530;2023-07-13T08:21:45;11.03;;;10.43;;
1460;SDS011;724;49.910;12.530;2023-07-13T08:24:13;10.47;;;9.93;;
1460;SDS011;724;49.910;12.530;2023-07-13T08:26:40;11.20;;;10.60;;
1460;SDS011;724;49.910;12.530;2023-07-13T08:29:07;10.90;;;10.30;;
1460;SDS011;724;49.910;12.530;2023-07-13T08:31:35;11.07;;;10.47;;
1460;SDS011;724;49.910;12.530;2023-07-13T08:34:02;11.37;;;10.77;;
1460;SDS011;724;49.910;12.530;2023-07-13T08:36:28;11.10;;;10.50;;
1460;SDS011;724;49.910;12.530;2023-07-13T08:38:55;11.40;;;10.80;;
1460;SDS011;724;49.910;12.530;2023-07-13T08:41:22;11.23;;;10.63;;
1460;SDS011;724;49.910;12.530;2023-07-13T08:43:50;11.30;;;10.70;;
1460;SDS011;724;49.910;12.530;2023-07-13T08:46:22;10.97;;;10.37;;
1460;SDS011;724;49.910;12.530;2023-07-13T08:48:55;10.47;;;9.93;;
1460;SDS011;724;49.910;12.530;2023-07-13T08:54:16;10.60;;;10.00;;
1460;SDS011;724;49.910;12.530;2023-07-13T08:56:47;10.33;;;9.83;;
1460;SDS011;724;49.910;12.530;2023-07-13T08:59:18;10.67;;;10.07;;
1460;SDS011;724;49.910;12.530;2023-07-13T09:01:54;9.97;;;9.47;;
1460;SDS011;724;49.910;12.530;2023-07-13T09:04:44;11.03;;;10.43;;
1460;SDS011;724;49.910;12.530;2023-07-13T09:07:17;11.50;;;10.90;;
1460;SDS011;724;49.910;12.530;2023-07-13T09:09:57;11.20;;;10.60;;
1460;SDS011;724;49.910;12.530;2023-07-13T09:12:40;11.67;;;11.07;;
1460;SDS011;724;49.910;12.530;2023-07-13T09:15:21;11.40;;;10.80;;
1460;SDS011;724;49.910;12.530;2023-07-13T09:17:52;10.90;;;10.30;;
1460;SDS011;724;49.910;12.530;2023-07-13T09:20:23;10.73;;;10.13;;
1460;SDS011;724;49.910;12.530;2023-07-13T09:22:53;10.90;;;10.30;;
1460;SDS011;724;49.910;12.530;2023-07-13T09:25:24;9.67;;;9.17;;
1460;SDS011;724;49.910;12.530;2023-07-13T09:27:56;9.63;;;9.13;;
1460;SDS011;724;49.910;12.530;2023-07-13T09:30:29;9.17;;;8.67;;
1460;SDS011;724;49.910;12.530;2023-07-13T09:32:59;9.43;;;8.93;;
1460;SDS011;724;49.910;12.530;2023-07-13T09:35:28;9.50;;;9.00;;
1460;SDS011;724;49.910;12.530;2023-07-13T09:38:01;9.67;;;9.17;;
1460;SDS011;724;49.910;12.530;2023-07-13T09:40:40;9.90;;;9.40;;
1460;SDS011;724;49.910;12.530;2023-07-13T09:43:14;10.20;;;9.70;;
1460;SDS011;724;49.910;12.530;2023-07-13T09:45:44;9.83;;;9.33;;
1460;SDS011;724;49.910;12.530;2023-07-13T09:48:13;10.90;;;10.30;;
1460;SDS011;724;49.910;12.530;2023-07-13T09:50:43;10.00;;;9.50;;
1460;SDS011;724;49.910;12.530;2023-07-13T09:53:13;9.40;;;8.90;;
1460;SDS011;724;49.910;12.530;2023-07-13T09:55:42;9.63;;;9.13;;
1460;SDS011;724;49.910;12.530;2023-07-13T09:58:11;10.30;;;9.80;;
1460;SDS011;724;49.910;12.530;2023-07-13T10:00:40;10.00;;;9.50;;
1460;SDS011;724;49.910;12.530;2023-07-13T10:03:16;9.70;;;9.20;;
1460;SDS011;724;49.910;12.530;2023-07-13T10:05:47;10.13;;;9.63;;
1460;SDS011;724;49.910;12.530;2023-07-13T10:08:21;10.10;;;9.60;;
1460;SDS011;724;49.910;12.530;2023-07-13T10:10:53;10.33;;;9.83;;
1460;SDS011;724;49.910;12.530;2023-07-13T10:13:33;9.30;;;8.80;;
1460;SDS011;724;49.910;12.530;2023-07-13T10:16:02;9.67;;;9.17;;
1460;SDS011;724;49.910;12.530;2023-07-13T10:18:35;9.57;;;9.07;;
1460;SDS011;724;49.910;12.530;2023-07-13T10:21:12;10.80;;;10.20;;
1460;SDS011;724;49.910;12.530;2023-07-13T10:23:42;10.00;;;9.50;;
1460;SDS011;724;49.910;12.530;2023-07-13T10:26:13;10.03;;;9.53;;
1460;SDS011;724;49.910;12.530;2023-07-13T10:28:45;10.73;;;10.13;;
1460;SDS011;724;49.910;12.530;2023-07-13T10:31:17;9.60;;;9.10;;
1460;SDS011;724;49.910;12.530;2023-07-13T10:33:45;9.63;;;9.13;;
1460;SDS011;724;49.910;12.530;2023-07-13T10:36:15;10.07;;;9.57;;
1460;SDS011;724;49.910;12.530;2023-07-13T10:38:50;10.33;;;9.83;;
1460;SDS011;724;49.910;12.530;2023-07-13T10:41:19;10.77;;;10.17;;
1460;SDS011;724;49.910;12.530;2023-07-13T10:43:49;10.63;;;10.03;;
1460;SDS011;724;49.910;12.530;2023-07-13T10:46:19;10.10;;;9.60;;
1460;SDS011;724;49.910;12.530;2023-07-13T10:48:49;10.03;;;9.53;;
1460;SDS011;724;49.910;12.530;2023-07-13T10:51:20;9.00;;;8.50;;
1460;SDS011;724;49.910;12.530;2023-07-13T10:53:48;9.10;;;8.60;;
1460;SDS011;724;49.910;12.530;2023-07-13T10:56:43;9.30;;;8.80;;
1460;SDS011;724;49.910;12.530;2023-07-13T10:59:11;9.80;;;9.30;;
1460;SDS011;724;49.910;12.530;2023-07-13T11:01:50;9.90;;;9.40;;
1460;SDS011;724;49.910;12.530;2023-07-13T11:04:19;9.73;;;9.23;;
1460;SDS011;724;49.910;12.530;2023-07-13T11:06:47;9.50;;;9.00;;
1460;SDS011;724;49.910;12.530;2023-07-13T11:09:30;9.53;;;9.03;;
1460;SDS011;724;49.910;12.530;2023-07-13T11:12:01;10.30;;;9.80;;
1460;SDS011;724;49.910;12.530;2023-07-13T11:14:35;10.93;;;10.33;;
1460;SDS011;724;49.910;12.530;2023-07-13T11:20:21;9.90;;;9.40;;
1460;SDS011;724;49.910;12.530;2023-07-13T11:23:15;10.80;;;10.20;;
1460;SDS011;724;49.910;12.530;2023-07-13T11:25:47;9.97;;;9.47;;
1460;SDS011;724;49.910;12.530;2023-07-13T11:28:16;9.53;;;9.03;;
1460;SDS011;724;49.910;12.530;2023-07-13T11:30:48;10.70;;;10.10;;
1460;SDS011;724;49.910;12.530;2023-07-13T11:33:27;9.83;;;9.33;;
1460;SDS011;724;49.910;12.530;2023-07-13T11:36:00;10.03;;;9.53;;
1460;SDS011;724;49.910;12.530;2023-07-13T11:38:31;10.00;;;9.50;;
1460;SDS011;724;49.910;12.530;2023-07-13T11:41:04;10.73;;;10.13;;
1460;SDS011;724;49.910;12.530;2023-07-13T11:43:33;10.70;;;10.10;;
1460;SDS011;724;49.910;12.530;2023-07-13T11:48:42;9.90;;;9.40;;
1460;SDS011;724;49.910;12.530;2023-07-13T11:51:15;9.70;;;9.20;;
1460;SDS011;724;49.910;12.530;2023-07-13T11:53:48;10.40;;;9.90;;
1460;SDS011;724;49.910;12.530;2023-07-13T11:56:18;10.23;;;9.73;;
1460;SDS011;724;49.910;12.530;2023-07-13T11:58:47;10.27;;;9.77;;
1460;SDS011;724;49.910;12.530;2023-07-13T12:01:16;10.87;;;10.27;;
1460;SDS011;724;49.910;12.530;2023-07-13T12:03:46;9.83;;;9.33;;
1460;SDS011;724;49.910;12.530;2023-07-13T12:06:26;9.50;;;9.00;;
1460;SDS011;724;49.910;12.530;2023-07-13T12:08:58;9.77;;;9.27;;
1460;SDS011;724;49.910;12.530;2023-07-13T12:11:27;9.20;;;8.70;;
1460;SDS011;724;49.910;12.530;2023-07-13T12:13:54;9.80;;;9.30;;
1460;SDS011;724;49.910;12.530;2023-07-13T12:16:23;10.00;;;9.50;;
1460;SDS011;724;49.910;12.530;2023-07-13T12:18:54;9.90;;;9.40;;
1460;SDS011;724;49.910;12.530;2023-07-13T12:21:23;9.23;;;8.73;;
1460;SDS011;724;49.910;12.530;2023-07-13T12:23:55;9.50;;;9.00;;
1460;SDS011;724;49.910;12.530;2023-07-13T12:26:22;9.00;;;8.50;;
1460;SDS011;724;49.910;12.530;2023-07-13T12:28:51;9.10;;;8.60;;
1460;SDS011;724;49.910;12.530;2023-07-13T12:31:25;9.20;;;8.70;;
1460;SDS011;724;49.910;12.530;2023-07-13T12:33:57;9.00;;;8.50;;
1460;SDS011;724;49.910;12.530;2023-07-13T12:36:26;9.27;;;8.77;;
1460;SDS011;724;49.910;12.530;2023-07-13T12:38:58;9.47;;;8.97;;
1460;SDS011;724;49.910;12.530;2023-07-13T12:41:30;9.53;;;9.03;;
1460;SDS011;724;49.910;12.530;2023-07-13T12:44:00;9.60;;;9.10;;
1460;SDS011;724;49.910;12.530;2023-07-13T12:46:27;8.93;;;8.43;;
1460;SDS011;724;49.910;12.530;2023-07-13T12:48:54;9.20;;;8.70;;
1460;SDS011;724;49.910;12.530;2023-07-13T12:51:25;9.17;;;8.67;;
1460;SDS011;724;49.910;12.530;2023-07-13T12:53:56;9.30;;;8.80;;
1460;SDS011;724;49.910;12.530;2023-07-13T12:56:26;9.13;;;8.63;;
1460;SDS011;724;49.910;12.530;2023-07-13T12:58:56;9.70;;;9.20;;
1460;SDS011;724;49.910;12.530;2023-07-13T13:01:26;10.03;;;9.53;;
1460;SDS011;724;49.910;12.530;2023-07-13T13:03:55;9.30;;;8.80;;
1460;SDS011;724;49.910;12.530;2023-07-13T13:06:23;9.67;;;9.17;;
1460;SDS011;724;49.910;12.530;2023-07-13T13:08:51;10.93;;;10.33;;
1460;SDS011;724;49.910;12.530;2023-07-13T13:11:19;10.80;;;10.20;;
1460;SDS011;724;49.910;12.530;2023-07-13T13:13:48;10.73;;;10.13;;
1460;SDS011;724;49.910;12.530;2023-07-13T13:16:17;10.80;;;10.20;;
1460;SDS011;724;49.910;12.530;2023-07-13T13:18:48;10.83;;;10.23;;
1460;SDS011;724;49.910;12.530;2023-07-13T13:21:15;9.93;;;9.43;;
1460;SDS011;724;49.910;12.530;2023-07-13T13:23:42;10.70;;;10.10;;
1460;SDS011;724;49.910;12.530;2023-07-13T13:26:10;11.00;;;10.40;;
1460;SDS011;724;49.910;12.530;2023-07-13T13:28:38;10.67;;;10.07;;
1460;SDS011;724;49.910;12.530;2023-07-13T13:31:05;9.80;;;9.30;;
1460;SDS011;724;49.910;12.530;2023-07-13T13:33:31;10.53;;;9.97;;
1460;SDS011;724;49.910;12.530;2023-07-13T13:36:00;10.60;;;10.00;;
1460;SDS011;724;49.910;12.530;2023-07-13T13:38:27;10.80;;;10.20;;
1460;SDS011;724;49.910;12.530;2023-07-13T13:40:54;10.87;;;10.27;;
1460;SDS011;724;49.910;12.530;2023-07-13T13:43:21;9.90;;;9.40;;
1460;SDS011;724;49.910;12.530;2023-07-13T13:45:52;10.87;;;10.27;;
1460;SDS011;724;49.910;12.530;2023-07-13T13:48:20;10.37;;;9.87;;
1460;SDS011;724;49.910;12.530;2023-07-13T13:50:55;10.10;;;9.60;;
1460;SDS011;724;49.910;12.530;2023-07-13T13:53:23;10.10;;;9.60;;
1460;SDS011;724;49.910;12.530;2023-07-13T13:55:50;10.80;;;10.20;;
1460;SDS011;724;49.910;12.530;2023-07-13T13:58:17;10.10;;;9.60;;
1460;SDS011;724;49.910;12.530;2023-07-13T14:00:44;10.70;;;10.10;;
1460;SDS011;724;49.910;12.530;2023-07-13T14:03:13;10.20;;;9.70;;
1460;SDS011;724;49.910;12.530;2023-07-13T14:05:42;10.10;;;9.60;;
1460;SDS011;724;49.910;12.530;2023-07-13T14:08:11;9.70;;;9.20;;
1460;SDS011;724;49.910;12.530;2023-07-13T14:10:44;9.70;;;9.20;;
1460;SDS011;724;49.910;12.530;2023-07-13T14:13:15;10.20;;;9.70;;
1460;SDS011;724;49.910;12.530;2023-07-13T14:15:46;11.07;;;10.47;;
1460;SDS011;724;49.910;12.530;2023-07-13T14:18:13;10.70;;;10.10;;
1460;SDS011;724;49.910;12.530;2023-07-13T14:20:43;9.80;;;9.30;;
1460;SDS011;724;49.910;12.530;2023-07-13T14:23:10;10.37;;;9.87;;
1460;SDS011;724;49.910;12.530;2023-07-13T14:25:37;10.77;;;10.17;;
1460;SDS011;724;49.910;12.530;2023-07-13T14:28:19;10.13;;;9.63;;
1460;SDS011;724;49.910;12.530;2023-07-13T14:30:49;9.83;;;9.33;;
1460;SDS011;724;49.910;12.530;2023-07-13T14:33:16;9.60;;;9.10;;
1460;SDS011;724;49.910;12.530;2023-07-13T14:35:44;9.40;;;8.90;;
1460;SDS011;724;49.910;12.530;2023-07-13T14:38:11;9.30;;;8.80;;
1460;SDS011;724;49.910;12.530;2023-07-13T14:40:43;9.60;;;9.10;;
1460;SDS011;724;49.910;12.530;2023-07-13T14:43:12;9.60;;;9.10;;
1460;SDS011;724;49.910;12.530;2023-07-13T14:45:40;9.43;;;8.93;;
1460;SDS011;724;49.910;12.530;2023-07-13T14:48:12;9.30;;;8.80;;
1460;SDS011;724;49.910;12.530;2023-07-13T14:50:41;9.30;;;8.80;;
1460;SDS011;724;49.910;12.530;2023-07-13T14:53:09;9.80;;;9.30;;
1460;SDS011;724;49.910;12.530;2023-07-13T14:55:37;10.20;;;9.70;;
1460;SDS011;724;49.910;12.530;2023-07-13T14:58:03;10.13;;;9.63;;
1460;SDS011;724;49.910;12.530;2023-07-13T15:00:32;10.23;;;9.73;;
1460;SDS011;724;49.910;12.530;2023-07-13T15:02:59;9.80;;;9.30;;
1460;SDS011;724;49.910;12.530;2023-07-13T15:05:27;10.00;;;9.50;;
1460;SDS011;724;49.910;12.530;2023-07-13T15:07:57;10.13;;;9.63;;
1460;SDS011;724;49.910;12.530;2023-07-13T15:10:25;10.00;;;9.50;;
1460;SDS011;724;49.910;12.530;2023-07-13T15:12:56;10.10;;;9.60;;
1460;SDS011;724;49.910;12.530;2023-07-13T15:15:25;10.20;;;9.70;;
1460;SDS011;724;49.910;12.530;2023-07-13T15:17:55;10.30;;;9.80;;
1460;SDS011;724;49.910;12.530;2023-07-13T15:20:25;10.10;;;9.60;;
1460;SDS011;724;49.910;12.530;2023-07-13T15:22:53;10.77;;;10.17;;
1460;SDS011;724;49.910;12.530;2023-07-13T15:25:21;9.80;;;9.30;;